createdAt,value
2022-12-17T00:01:29.448Z,100849.38
2022-12-17T00:04:17.742Z,100853.27
2022-12-17T00:07:06.318Z,100863.44
2022-12-17T00:09:54.627Z,100861.79
2022-12-17T00:12:44.607Z,100863.68
2022-12-17T00:15:32.586Z,100863.91
2022-12-17T00:18:25.544Z,100860.64
2022-12-17T00:21:15.545Z,100859.91
2022-12-17T00:24:19.414Z,100863.84
2022-12-17T00:27:07.938Z,100859.08
2022-12-17T00:29:55.872Z,100865.48
2022-12-17T00:32:44.173Z,100867.45
2022-12-17T00:35:33.148Z,100871.89
2022-12-17T00:38:21.826Z,100872.83
2022-12-17T00:41:12.953Z,100870.90
2022-12-17T00:44:01.654Z,100882.55
2022-12-17T00:46:49.851Z,100885.52
2022-12-17T00:49:38.519Z,100886.61
2022-12-17T00:52:26.959Z,100893.13
2022-12-17T00:55:15.331Z,100900.16
2022-12-17T00:58:03.771Z,100904.84
2022-12-17T01:00:52.432Z,100907.98
2022-12-17T01:03:37.558Z,100910.73
2022-12-17T01:06:29.480Z,100911.23
2022-12-17T01:09:17.986Z,100915.27
2022-12-17T01:12:06.546Z,100917.89
2022-12-17T01:14:54.957Z,100917.80
2022-12-17T01:17:43.413Z,100917.83
2022-12-17T01:20:32.116Z,100918.55
2022-12-17T01:23:20.938Z,100922.97
2022-12-17T01:26:15.152Z,100928.18
2022-12-17T01:29:03.684Z,100927.16
2022-12-17T01:31:51.800Z,100929.85
2022-12-17T01:34:40.490Z,100938.76
2022-12-17T01:37:28.943Z,100940.64
2022-12-17T01:40:17.486Z,100942.81
2022-12-17T01:43:07.097Z,100945.45
2022-12-17T01:46:00.828Z,100945.39
2022-12-17T01:48:55.531Z,100941.98
2022-12-17T01:51:45.263Z,100940.39
2022-12-17T01:54:34.138Z,100943.15
2022-12-17T01:57:25.938Z,100949.17
2022-12-17T02:00:19.681Z,100951.73
2022-12-17T02:03:08.134Z,100954.75
2022-12-17T02:06:03.612Z,100952.58
2022-12-17T02:08:59.087Z,100957.45
2022-12-17T02:11:58.164Z,100949.89
2022-12-17T02:14:51.877Z,100958.62
2022-12-17T02:17:43.667Z,100957.42
2022-12-17T02:20:43.123Z,100960.38
2022-12-17T02:24:01.343Z,100958.08
2022-12-17T02:26:57.487Z,100962.98
2022-12-17T02:29:50.196Z,100961.91
2022-12-17T02:32:39.705Z,100962.64
2022-12-17T02:35:34.710Z,100957.08
2022-12-17T02:38:37.290Z,100959.89
2022-12-17T02:41:29.353Z,100962.15
2022-12-17T02:44:20.634Z,100963.73
2022-12-17T02:47:12.592Z,100963.82
2022-12-17T02:50:01.479Z,100969.61
2022-12-17T02:52:52.915Z,100970.48
2022-12-17T02:55:41.776Z,100972.17
2022-12-17T02:58:29.970Z,100976.23
2022-12-17T03:01:18.557Z,100979.17
2022-12-17T03:04:07.059Z,100978.94
2022-12-17T03:06:55.640Z,100979.02
2022-12-17T03:09:43.787Z,100980.66
2022-12-17T03:12:32.148Z,100982.30
2022-12-17T03:15:21.159Z,100985.55
2022-12-17T03:18:09.424Z,100983.98
2022-12-17T03:21:11.914Z,100990.70
2022-12-17T03:24:00.491Z,100996.89
2022-12-17T03:26:49.704Z,100995.45
2022-12-17T03:29:38.200Z,100995.29
2022-12-17T03:32:26.727Z,100998.38
2022-12-17T03:35:15.262Z,100995.79
2022-12-17T03:38:03.814Z,101002.39
2022-12-17T03:40:52.186Z,101004.19
2022-12-17T03:43:40.844Z,101004.20
2022-12-17T03:46:29.113Z,101002.73
2022-12-17T03:49:17.655Z,101000.95
2022-12-17T03:52:05.812Z,101002.81
2022-12-17T03:54:54.502Z,101004.50
2022-12-17T03:57:42.761Z,101006.08
2022-12-17T04:00:33.286Z,101008.67
2022-12-17T04:03:21.695Z,101014.72
2022-12-17T04:06:10.315Z,101013.31
2022-12-17T04:09:13.306Z,101013.24
2022-12-17T04:12:01.621Z,101020.83
2022-12-17T04:14:49.939Z,101022.25
2022-12-17T04:17:38.082Z,101021.17
2022-12-17T04:20:28.440Z,101025.91
2022-12-17T04:23:17.114Z,101037.24
2022-12-17T04:26:05.354Z,101041.36
2022-12-17T04:28:53.604Z,101045.20
2022-12-17T04:31:42.512Z,101050.83
2022-12-17T04:34:30.904Z,101054.68
2022-12-17T04:37:19.133Z,101055.73
2022-12-17T04:40:07.677Z,101055.77
2022-12-17T04:42:56.036Z,101055.48
2022-12-17T04:45:44.111Z,101059.05
2022-12-17T04:48:32.713Z,101059.52
2022-12-17T04:51:21.074Z,101063.25
2022-12-17T04:54:17.654Z,101062.85
2022-12-17T04:57:06.275Z,101061.84
2022-12-17T04:59:54.552Z,101062.09
2022-12-17T05:02:43.282Z,101061.30
2022-12-17T05:05:32.028Z,101063.77
2022-12-17T05:08:20.621Z,101069.14
2022-12-17T05:11:09.000Z,101077.02
2022-12-17T05:13:56.974Z,101074.80
2022-12-17T05:16:45.196Z,101076.64
2022-12-17T05:19:33.534Z,101084.47
2022-12-17T05:22:22.012Z,101087.71
2022-12-17T05:25:12.582Z,101089.80
2022-12-17T05:28:00.651Z,101089.95
2022-12-17T05:30:48.816Z,101097.00
2022-12-17T05:33:37.463Z,101105.25
2022-12-17T05:36:35.540Z,101112.87
2022-12-17T05:39:22.586Z,101116.92
2022-12-17T05:42:10.828Z,101117.92
2022-12-17T05:44:58.978Z,101121.45
2022-12-17T05:47:47.310Z,101123.52
2022-12-17T05:50:36.433Z,101122.16
2022-12-17T05:53:25.571Z,101125.84
2022-12-17T05:56:14.569Z,101130.86
2022-12-17T05:59:03.210Z,101131.77
2022-12-17T06:01:51.494Z,101133.85
2022-12-17T06:04:39.817Z,101132.20
2022-12-17T06:07:28.133Z,101130.80
2022-12-17T06:10:16.272Z,101136.08
2022-12-17T06:13:13.177Z,101142.92
2022-12-17T06:16:01.507Z,101143.23
2022-12-17T06:18:49.883Z,101146.83
2022-12-17T06:21:38.510Z,101147.16
2022-12-17T06:24:27.482Z,101150.13
2022-12-17T06:27:16.435Z,101147.52
2022-12-17T06:30:04.722Z,101145.74
2022-12-17T06:32:52.918Z,101149.30
2022-12-17T06:35:41.463Z,101158.27
2022-12-17T06:38:29.942Z,101162.55
2022-12-17T06:41:20.934Z,101165.81
2022-12-17T06:44:09.432Z,101168.16
2022-12-17T06:46:57.549Z,101169.50
2022-12-17T06:49:46.135Z,101172.89
2022-12-17T06:52:34.480Z,101179.83
2022-12-17T06:55:23.335Z,101184.91
2022-12-17T06:58:17.309Z,101189.37
2022-12-17T07:01:17.419Z,101189.20
2022-12-17T07:04:06.124Z,101193.39
2022-12-17T07:06:54.489Z,101199.46
2022-12-17T07:09:43.033Z,101200.83
2022-12-17T07:12:31.593Z,101202.01
2022-12-17T07:15:20.158Z,101211.65
2022-12-17T07:18:16.855Z,101219.37
2022-12-17T07:21:06.025Z,101223.46
2022-12-17T07:23:54.470Z,101224.55
2022-12-17T07:26:42.875Z,101224.97
2022-12-17T07:29:31.210Z,101231.91
2022-12-17T07:32:19.482Z,101233.73
2022-12-17T07:35:07.978Z,101237.71
2022-12-17T07:37:56.607Z,101238.64
2022-12-17T07:40:44.929Z,101238.40
2022-12-17T07:43:34.146Z,101240.55
2022-12-17T07:46:23.263Z,101244.83
2022-12-17T07:49:11.647Z,101243.83
2022-12-17T07:52:00.118Z,101246.80
2022-12-17T07:54:48.671Z,101249.11
2022-12-17T07:57:37.430Z,101253.13
2022-12-17T08:00:27.922Z,101259.15
2022-12-17T08:03:19.662Z,101262.48
2022-12-17T08:06:08.182Z,101269.05
2022-12-17T08:08:56.660Z,101271.59
2022-12-17T08:11:44.972Z,101275.55
2022-12-17T08:14:33.835Z,101283.17
2022-12-17T08:17:22.344Z,101281.56
2022-12-17T08:20:10.816Z,101288.18
2022-12-17T08:23:13.413Z,101288.69
2022-12-17T08:26:01.493Z,101297.13
2022-12-17T08:28:51.010Z,101302.25
2022-12-17T08:31:49.927Z,101307.98
2022-12-17T08:34:38.174Z,101311.42
2022-12-17T08:37:26.695Z,101312.56
2022-12-17T08:40:14.944Z,101310.57
2022-12-17T08:43:03.406Z,101318.18
2022-12-17T08:45:51.992Z,101314.71
2022-12-17T08:48:40.173Z,101318.06
2022-12-17T08:51:28.534Z,101320.20
2022-12-17T08:54:16.470Z,101325.34
2022-12-17T08:57:04.681Z,101327.58
2022-12-17T08:59:53.246Z,101326.16
2022-12-17T09:02:41.365Z,101330.48
2022-12-17T09:05:30.582Z,101333.38
2022-12-17T09:08:23.642Z,101338.36
2022-12-17T09:11:12.290Z,101341.23
2022-12-17T09:14:00.839Z,101345.52
2022-12-17T09:16:49.273Z,101343.95
2022-12-17T09:19:37.840Z,101341.61
2022-12-17T09:22:26.061Z,101341.95
2022-12-17T09:25:14.280Z,101339.77
2022-12-17T09:28:02.717Z,101344.77
2022-12-17T09:30:51.275Z,101343.83
2022-12-17T09:33:40.249Z,101343.80
2022-12-17T09:36:29.993Z,101348.13
2022-12-17T09:39:18.311Z,101350.05
2022-12-17T09:42:14.618Z,101348.25
2022-12-17T09:45:11.192Z,101352.95
2022-12-17T09:48:08.165Z,101359.56
2022-12-17T09:50:56.940Z,101364.92
2022-12-17T09:54:03.334Z,101355.88
2022-12-17T09:56:54.901Z,101357.02
2022-12-17T09:59:48.816Z,101360.78
2022-12-17T10:02:39.340Z,101363.05
2022-12-17T10:05:34.890Z,101363.52
2022-12-17T10:08:25.894Z,101364.34
2022-12-17T10:11:15.714Z,101366.65
2022-12-17T10:14:03.753Z,101372.33
2022-12-17T10:16:58.374Z,101371.44
2022-12-17T10:19:54.345Z,101380.47
2022-12-17T10:22:42.725Z,101382.80
2022-12-17T10:25:38.690Z,101384.63
2022-12-17T10:28:30.203Z,101388.10
2022-12-17T10:31:17.560Z,101390.73
2022-12-17T10:34:06.308Z,101393.16
2022-12-17T10:36:54.812Z,101392.11
2022-12-17T10:39:44.749Z,101392.48
2022-12-17T10:42:42.904Z,101395.48
2022-12-17T10:45:44.110Z,101399.02
2022-12-17T10:48:42.151Z,101401.59
2022-12-17T10:51:58.723Z,101406.17
2022-12-17T10:54:49.944Z,101409.92
2022-12-17T10:57:54.791Z,101403.84
2022-12-17T11:00:50.382Z,101402.18
2022-12-17T11:03:52.623Z,101404.84
2022-12-17T11:06:46.014Z,101406.29
2022-12-17T11:09:42.979Z,101410.27
2022-12-17T11:12:32.983Z,101405.97
2022-12-17T11:15:31.736Z,101412.63
2022-12-17T11:18:23.161Z,101408.48
2022-12-17T11:21:15.417Z,101413.98
2022-12-17T11:24:08.324Z,101414.12
2022-12-17T11:27:02.013Z,101420.17
2022-12-17T11:29:50.745Z,101418.17
2022-12-17T11:33:03.546Z,101421.16
2022-12-17T11:36:01.492Z,101420.69
2022-12-17T11:38:57.106Z,101420.17
2022-12-17T11:41:54.096Z,101422.86
2022-12-17T11:44:58.470Z,101418.30
2022-12-17T11:47:59.026Z,101419.25
2022-12-17T11:50:57.057Z,101419.17
2022-12-17T11:53:52.061Z,101421.35
2022-12-17T11:56:46.167Z,101424.30
2022-12-17T11:59:49.474Z,101426.97
2022-12-17T12:03:02.436Z,101432.34
2022-12-17T12:06:03.129Z,101432.40
2022-12-17T12:08:56.601Z,101432.74
2022-12-17T12:11:53.229Z,101440.71
2022-12-17T12:14:54.397Z,101438.08
2022-12-17T12:17:57.707Z,101437.13
2022-12-17T12:21:01.764Z,101444.65
2022-12-17T12:24:03.936Z,101443.29
2022-12-17T12:26:59.440Z,101445.21
2022-12-17T12:29:56.966Z,101448.52
2022-12-17T12:32:47.717Z,101447.23
2022-12-17T12:35:40.075Z,101451.33
2022-12-17T12:38:40.402Z,101451.19
2022-12-17T12:41:40.604Z,101454.45
2022-12-17T12:44:33.483Z,101455.67
2022-12-17T12:47:26.631Z,101458.13
2022-12-17T12:50:22.454Z,101461.27
2022-12-17T12:53:10.787Z,101464.52
2022-12-17T12:56:01.837Z,101465.20
2022-12-17T12:58:52.262Z,101468.60
2022-12-17T13:01:50.632Z,101466.63
2022-12-17T13:04:48.125Z,101469.30
2022-12-17T13:07:27.355Z,101472.73
2022-12-17T13:10:00.090Z,101475.56
2022-12-17T13:12:36.970Z,101479.31
2022-12-17T13:15:21.898Z,101478.98
2022-12-17T13:18:05.312Z,101478.89
2022-12-17T13:20:37.296Z,101479.69
2022-12-17T13:23:33.656Z,101485.73
2022-12-17T13:26:25.728Z,101485.46
2022-12-17T13:29:19.442Z,101486.72
2022-12-17T13:32:09.728Z,101491.75
2022-12-17T13:34:51.785Z,101495.16
2022-12-17T13:37:33.347Z,101494.45
2022-12-17T13:40:18.249Z,101497.02
2022-12-17T13:42:49.882Z,101505.01
2022-12-17T13:45:23.264Z,101505.83
2022-12-17T13:47:58.579Z,101512.88
2022-12-17T13:50:34.399Z,101513.34
2022-12-17T13:53:13.329Z,101511.48
2022-12-17T13:55:50.718Z,101519.16
2022-12-17T13:58:30.172Z,101521.46
2022-12-17T14:01:12.630Z,101524.92
2022-12-17T14:04:06.143Z,101524.28
2022-12-17T14:06:39.617Z,101528.45
2022-12-17T14:09:15.475Z,101532.11
2022-12-17T14:12:04.487Z,101536.17
2022-12-17T14:14:37.875Z,101541.75
2022-12-17T14:17:07.333Z,101549.41
2022-12-17T14:19:39.738Z,101552.02
2022-12-17T14:22:17.571Z,101563.44
2022-12-17T14:24:48.788Z,101562.20
2022-12-17T14:27:27.314Z,101564.54
2022-12-17T14:29:57.954Z,101567.40
2022-12-17T14:32:34.501Z,101570.42
2022-12-17T14:35:06.659Z,101573.95
2022-12-17T14:37:37.954Z,101582.69
2022-12-17T14:40:12.236Z,101582.20
2022-12-17T14:42:43.122Z,101584.61
2022-12-17T14:45:25.648Z,101584.19
2022-12-17T14:47:58.614Z,101590.10
2022-12-17T14:50:35.285Z,101593.64
2022-12-17T14:53:23.098Z,101599.13
2022-12-17T14:55:58.315Z,101600.22
2022-12-17T14:58:29.503Z,101601.40
2022-12-17T15:01:07.467Z,101598.48
2022-12-17T15:03:42.433Z,101606.06
2022-12-17T15:06:15.702Z,101609.23
2022-12-17T15:08:48.734Z,101616.40
2022-12-17T15:11:24.450Z,101619.05
2022-12-17T15:13:56.786Z,101621.51
2022-12-17T15:16:28.356Z,101622.02
2022-12-17T15:19:00.377Z,101623.14
2022-12-17T15:21:31.258Z,101628.89
2022-12-17T15:24:02.236Z,101626.61
2022-12-17T15:26:33.372Z,101625.41
2022-12-17T15:29:04.172Z,101629.90
2022-12-17T15:31:35.805Z,101633.58
2022-12-17T15:34:07.016Z,101638.73
2022-12-17T15:36:37.693Z,101640.20
2022-12-17T15:39:09.642Z,101640.45
2022-12-17T15:41:58.280Z,101641.11
2022-12-17T15:44:29.432Z,101642.77
2022-12-17T15:47:00.006Z,101638.56
2022-12-17T15:49:30.693Z,101641.99
2022-12-17T15:52:01.339Z,101643.05
2022-12-17T15:54:31.954Z,101643.23
2022-12-17T15:57:02.653Z,101640.13
2022-12-17T15:59:33.850Z,101643.40
2022-12-17T16:02:04.846Z,101648.95
2022-12-17T16:04:35.690Z,101648.40
2022-12-17T16:07:06.584Z,101651.54
2022-12-17T16:09:37.334Z,101652.64
2022-12-17T16:12:08.843Z,101654.02
2022-12-17T16:14:39.541Z,101660.42
2022-12-17T16:17:10.433Z,101663.08
2022-12-17T16:19:41.224Z,101668.50
2022-12-17T16:22:11.961Z,101665.12
2022-12-17T16:24:42.994Z,101662.20
2022-12-17T16:27:13.841Z,101665.98
2022-12-17T16:29:45.613Z,101665.41
2022-12-17T16:32:17.107Z,101669.83
2022-12-17T16:34:47.898Z,101669.61
2022-12-17T16:37:18.904Z,101673.93
2022-12-17T16:39:53.948Z,101667.05
2022-12-17T16:42:30.707Z,101668.15
2022-12-17T16:45:01.401Z,101672.89
2022-12-17T16:47:32.035Z,101677.66
2022-12-17T16:50:02.644Z,101685.27
2022-12-17T16:52:33.351Z,101690.23
2022-12-17T16:55:03.961Z,101695.46
2022-12-17T16:57:34.610Z,101696.03
2022-12-17T17:00:05.995Z,101698.30
2022-12-17T17:02:36.829Z,101699.16
2022-12-17T17:05:09.175Z,101698.09
2022-12-17T17:07:39.922Z,101699.05
2022-12-17T17:10:11.981Z,101703.16
2022-12-17T17:12:42.636Z,101709.09
2022-12-17T17:15:14.015Z,101713.70
2022-12-17T17:17:54.144Z,101716.80
2022-12-17T17:20:26.846Z,101713.82
2022-12-17T17:22:57.627Z,101719.12
2022-12-17T17:25:50.280Z,101721.15
2022-12-17T17:28:18.963Z,101725.56
2022-12-17T17:30:49.776Z,101714.76
2022-12-17T17:33:20.628Z,101732.89
2022-12-17T17:35:51.382Z,101736.80
2022-12-17T17:38:22.067Z,101739.38
2022-12-17T17:40:58.889Z,101741.58
2022-12-17T17:43:29.699Z,101740.58
2022-12-17T17:46:07.497Z,101739.12
2022-12-17T17:48:38.845Z,101744.83
2022-12-17T17:51:14.708Z,101746.15
2022-12-17T17:53:45.922Z,101746.17
2022-12-17T17:56:19.235Z,101742.98
2022-12-17T17:58:52.067Z,101743.80
2022-12-17T18:01:24.990Z,101739.23
2022-12-17T18:03:59.243Z,101740.90
2022-12-17T18:06:30.826Z,101743.45
2022-12-17T18:09:04.031Z,101744.52
2022-12-17T18:11:36.704Z,101747.19
2022-12-17T18:14:09.754Z,101749.61
2022-12-17T18:16:42.593Z,101745.73
2022-12-17T18:19:17.193Z,101748.89
2022-12-17T18:21:48.730Z,101758.65
2022-12-17T18:24:22.731Z,101757.83
2022-12-17T18:26:54.479Z,101759.43
2022-12-17T18:29:28.943Z,101764.45
2022-12-17T18:31:59.729Z,101764.80
2022-12-17T18:34:30.691Z,101771.18
2022-12-17T18:37:01.745Z,101769.33
2022-12-17T18:39:33.054Z,101771.89
2022-12-17T18:42:21.477Z,101777.17
2022-12-17T18:44:52.440Z,101781.77
2022-12-17T18:47:23.461Z,101785.25
2022-12-17T18:49:54.568Z,101786.95
2022-12-17T18:52:25.568Z,101790.27
2022-12-17T18:54:56.287Z,101789.58
2022-12-17T18:57:26.926Z,101795.83
2022-12-17T18:59:58.011Z,101796.95
2022-12-17T19:02:28.933Z,101802.70
2022-12-17T19:04:59.733Z,101805.93
2022-12-17T19:07:30.428Z,101813.73
2022-12-17T19:10:01.368Z,101817.55
2022-12-17T19:12:32.140Z,101818.33
2022-12-17T19:15:02.991Z,101817.83
2022-12-17T19:17:34.011Z,101821.52
2022-12-17T19:20:05.021Z,101823.45
2022-12-17T19:22:35.699Z,101818.43
2022-12-17T19:25:06.959Z,101828.16
2022-12-17T19:27:37.597Z,101830.46
2022-12-17T19:30:11.388Z,101832.02
2022-12-17T19:32:42.480Z,101834.90
2022-12-17T19:35:13.275Z,101834.69
2022-12-17T19:37:44.768Z,101836.81
2022-12-17T19:40:16.358Z,101837.02
2022-12-17T19:42:47.204Z,101840.77
2022-12-17T19:45:17.870Z,101840.30
2022-12-17T19:47:48.828Z,101844.02
2022-12-17T19:50:19.867Z,101841.67
2022-12-17T19:52:50.524Z,101843.92
2022-12-17T19:55:22.178Z,101846.48
2022-12-17T19:57:52.970Z,101844.81
2022-12-17T20:00:27.211Z,101851.23
2022-12-17T20:02:59.197Z,101853.50
2022-12-17T20:05:30.152Z,101857.83
2022-12-17T20:08:00.934Z,101857.38
2022-12-17T20:10:36.293Z,101856.07
2022-12-17T20:13:07.678Z,101858.59
2022-12-17T20:15:38.598Z,101861.02
2022-12-17T20:18:09.395Z,101857.72
2022-12-17T20:20:40.054Z,101853.02
2022-12-17T20:23:11.898Z,101856.98
2022-12-17T20:25:42.559Z,101865.46
2022-12-17T20:28:13.339Z,101869.23
2022-12-17T20:30:44.107Z,101872.34
2022-12-17T20:33:14.768Z,101874.00
2022-12-17T20:35:45.423Z,101880.51
2022-12-17T20:38:16.332Z,101887.23
2022-12-17T20:40:47.017Z,101887.31
2022-12-17T20:43:18.007Z,101891.46
2022-12-17T20:45:55.582Z,101890.25
2022-12-17T20:48:26.926Z,101896.29
2022-12-17T20:50:57.690Z,101900.93
2022-12-17T20:53:28.336Z,101905.00
2022-12-17T20:56:08.448Z,101900.20
2022-12-17T20:58:40.116Z,101900.85
2022-12-17T21:01:13.082Z,101904.45
2022-12-17T21:03:44.689Z,101911.09
2022-12-17T21:06:17.156Z,101908.90
2022-12-17T21:08:50.328Z,101911.70
2022-12-17T21:11:20.382Z,101915.98
2022-12-17T21:13:51.793Z,101915.46
2022-12-17T21:16:24.303Z,101915.85
2022-12-17T21:18:55.500Z,101919.84
2022-12-17T21:21:29.368Z,101920.80
2022-12-17T21:24:01.059Z,101928.85
2022-12-17T21:26:33.808Z,101926.80
2022-12-17T21:29:07.076Z,101929.08
2022-12-17T21:31:40.696Z,101929.30
2022-12-17T21:34:14.804Z,101931.14
2022-12-17T21:36:45.687Z,101931.83
2022-12-17T21:39:18.117Z,101936.39
2022-12-17T21:42:09.034Z,101937.38
2022-12-17T21:44:40.160Z,101939.96
2022-12-17T21:47:11.056Z,101946.22
2022-12-17T21:49:41.699Z,101949.48
2022-12-17T21:52:12.450Z,101948.59
2022-12-17T21:54:43.255Z,101951.21
2022-12-17T21:57:13.960Z,101953.49
2022-12-17T21:59:45.246Z,101955.86
2022-12-17T22:02:16.053Z,101955.19
2022-12-17T22:04:46.975Z,101956.74
2022-12-17T22:07:21.606Z,101958.54
2022-12-17T22:10:25.461Z,101956.11
2022-12-17T22:13:15.316Z,101958.90
2022-12-17T22:15:47.971Z,101963.77
2022-12-17T22:18:19.155Z,101959.59
2022-12-17T22:20:59.561Z,101962.85
2022-12-17T22:23:30.396Z,101970.35
2022-12-17T22:26:01.397Z,101972.88
2022-12-17T22:28:33.635Z,101974.74
2022-12-17T22:31:30.794Z,101982.39
2022-12-17T22:34:27.620Z,101984.25
2022-12-17T22:38:01.064Z,101982.16
2022-12-17T22:44:10.253Z,101985.54
2022-12-17T22:44:42.956Z,101985.75
2022-12-17T22:45:43.269Z,101989.51
2022-12-17T22:48:14.982Z,101991.80
2022-12-17T22:50:51.008Z,101991.50
2022-12-17T22:53:35.730Z,101990.84
2022-12-17T22:56:20.048Z,101988.09
2022-12-17T22:59:01.166Z,101994.93
2022-12-17T23:01:32.596Z,101995.02
2022-12-17T23:04:04.727Z,101994.95
2022-12-17T23:06:35.390Z,102000.89
2022-12-17T23:09:06.216Z,102004.13
2022-12-17T23:11:37.201Z,102004.73
2022-12-17T23:14:09.584Z,102003.11
2022-12-17T23:16:42.112Z,102002.61
2022-12-17T23:19:14.185Z,102003.33
2022-12-17T23:21:44.912Z,102004.25
2022-12-17T23:24:15.562Z,102004.33
2022-12-17T23:26:46.198Z,102010.58
2022-12-17T23:29:19.623Z,102014.48
2022-12-17T23:31:51.315Z,102020.17
2022-12-17T23:34:22.095Z,102023.87
2022-12-17T23:36:52.695Z,102031.67
2022-12-17T23:39:23.344Z,102031.84
2022-12-17T23:41:56.384Z,102036.66
2022-12-17T23:44:27.153Z,102034.69
2022-12-17T23:46:57.832Z,102034.17
2022-12-17T23:49:29.247Z,102025.79
2022-12-17T23:52:00.036Z,102022.26
2022-12-17T23:54:30.810Z,102020.75
2022-12-17T23:57:01.411Z,102019.84
2022-12-17T23:59:32.078Z,102020.23
